Time;durP1;ratioP1;P1;durP2;ratioP2;P2;SDS_P1;SDS_P2;PMS_P1;PMS_P2;Temp;Humidity;BMP_temperature;BMP_pressure;BME280_temperature;BME280_humidity;BME280_pressure;Samples;Min_cycle;Max_cycle;Signal;HPM_P1;HPM_P2
2021/12/30 00:00:18;;;;;;;22.40;14.98;;;;;;;-4.74;74.67;100324.55;1756633;81;21043;-68
2021/12/30 00:02:44;;;;;;;29.23;18.95;;;;;;;-4.74;74.64;100328.42;1760084;81;22512;-68
2021/12/30 00:05:11;;;;;;;25.30;16.02;;;;;;;-4.78;74.61;100332.80;1759662;81;21560;-68
2021/12/30 00:07:38;;;;;;;29.92;19.82;;;;;;;-4.79;74.64;100329.80;1759669;81;20972;-69
2021/12/30 00:10:07;;;;;;;30.43;19.40;;;;;;;-4.81;74.68;100333.30;1758822;81;21408;-68
2021/12/30 00:12:35;;;;;;;30.92;19.70;;;;;;;-4.80;74.68;100336.28;1758601;81;21000;-68
2021/12/30 00:15:03;;;;;;;33.45;19.98;;;;;;;-4.79;74.70;100337.98;1758946;81;22150;-68
2021/12/30 00:17:31;;;;;;;32.95;21.07;;;;;;;-4.78;74.75;100332.80;1758567;81;21040;-69
2021/12/30 00:19:59;;;;;;;27.75;18.23;;;;;;;-4.75;74.75;100337.03;1758749;81;21430;-67
2021/12/30 00:22:25;;;;;;;31.00;20.80;;;;;;;-4.74;74.74;100334.42;1745298;81;20980;-68
2021/12/30 00:24:52;;;;;;;30.52;19.70;;;;;;;-4.74;74.75;100329.71;1728476;83;21482;-68
2021/12/30 00:27:18;;;;;;;30.65;19.95;;;;;;;-4.73;74.75;100333.58;1728508;83;22634;-68
2021/12/30 00:29:45;;;;;;;29.20;19.67;;;;;;;-4.72;74.73;100333.98;1728679;83;21133;-68
2021/12/30 00:32:11;;;;;;;31.23;20.02;;;;;;;-4.70;74.72;100332.66;1728487;83;21087;-68
2021/12/30 00:34:37;;;;;;;29.82;19.60;;;;;;;-4.71;74.72;100329.23;1746243;81;20968;-67
2021/12/30 00:37:04;;;;;;;31.12;19.85;;;;;;;-4.70;74.75;100336.09;1758473;81;21005;-68
2021/12/30 00:39:31;;;;;;;31.60;20.17;;;;;;;-4.71;74.74;100335.68;1758547;81;21833;-68
2021/12/30 00:41:57;;;;;;;30.80;19.32;;;;;;;-4.74;74.74;100333.13;1733105;81;21087;-69
2021/12/30 00:44:25;;;;;;;31.60;20.45;;;;;;;-4.71;74.75;100332.25;1758727;81;20945;-67
2021/12/30 00:46:52;;;;;;;29.37;20.08;;;;;;;-4.70;74.71;100333.95;1758591;81;21510;-68
2021/12/30 00:49:18;;;;;;;25.75;17.50;;;;;;;-4.69;74.72;100332.63;1758901;81;21458;-68
2021/12/30 00:51:45;;;;;;;27.42;18.30;;;;;;;-4.68;74.69;100334.33;1754290;81;22170;-68
2021/12/30 00:54:11;;;;;;;31.52;18.67;;;;;;;-4.72;74.68;100332.70;1758586;81;21083;-68
2021/12/30 00:56:37;;;;;;;28.98;19.17;;;;;;;-4.73;74.67;100334.86;1758504;81;21064;-68
2021/12/30 00:59:04;;;;;;;28.75;17.98;;;;;;;-4.72;74.68;100335.71;1758781;81;21117;-68
2021/12/30 01:01:30;;;;;;;26.80;18.48;;;;;;;-4.72;74.68;100332.70;1758642;81;20937;-68
2021/12/30 01:03:57;;;;;;;27.40;17.82;;;;;;;-4.71;74.69;100339.98;1758604;81;21826;-68
2021/12/30 01:06:24;;;;;;;30.75;19.17;;;;;;;-4.71;74.67;100349.00;1758498;81;21452;-68
2021/12/30 01:08:51;;;;;;;29.18;20.02;;;;;;;-4.71;74.72;100345.14;1758311;81;21048;-68
2021/12/30 01:11:20;;;;;;;28.95;19.27;;;;;;;-4.71;74.73;100348.56;1758580;81;21008;-68
2021/12/30 01:13:51;;;;;;;32.83;20.82;;;;;;;-4.70;74.73;100345.11;1758725;81;20992;-68
2021/12/30 01:16:17;;;;;;;28.60;19.48;;;;;;;-4.67;74.73;100348.06;1758590;81;21751;-67
2021/12/30 01:21:33;;;;;;;29.87;20.02;;;;;;;-4.64;74.65;100342.40;1746563;81;21000;-68
2021/12/30 01:24:00;;;;;;;31.95;20.27;;;;;;;-4.63;74.64;100343.28;1716337;81;20947;-68
2021/12/30 01:26:27;;;;;;;31.80;20.68;;;;;;;-4.63;74.61;100348.44;1754952;81;21446;-68
2021/12/30 01:28:53;;;;;;;33.38;20.23;;;;;;;-4.62;74.60;100344.98;1717821;81;22335;-69
2021/12/30 01:31:20;;;;;;;34.78;21.20;;;;;;;-4.63;74.56;100346.70;1720202;81;20996;-68
2021/12/30 01:33:47;;;;;;;30.12;20.82;;;;;;;-4.63;74.55;100347.14;1729610;81;21012;-68
2021/12/30 01:36:15;;;;;;;33.40;21.00;;;;;;;-4.62;74.57;100349.69;1719345;81;21035;-68
2021/12/30 01:38:43;;;;;;;27.98;19.27;;;;;;;-4.60;74.60;100349.66;1747750;81;21044;-67
2021/12/30 01:41:10;;;;;;;26.95;18.55;;;;;;;-4.59;74.58;100347.93;1738280;81;22706;-68
2021/12/30 01:43:37;;;;;;;28.83;18.27;;;;;;;-4.61;74.58;100346.23;1757882;81;20929;-68
2021/12/30 01:46:05;;;;;;;24.57;17.65;;;;;;;-4.63;74.55;100342.84;1758158;81;21016;-68
2021/12/30 01:48:32;;;;;;;27.55;19.70;;;;;;;-4.68;74.57;100348.50;1741125;81;21086;-68
2021/12/30 01:50:58;;;;;;;29.45;19.60;;;;;;;-4.66;74.59;100348.47;1756720;81;21008;-68
2021/12/30 01:53:25;;;;;;;28.77;19.48;;;;;;;-4.67;74.61;100348.06;1740828;81;21873;-68
2021/12/30 01:55:52;;;;;;;30.77;20.08;;;;;;;-4.65;74.62;100351.45;1750082;81;21094;-69
2021/12/30 01:58:19;;;;;;;29.85;19.65;;;;;;;-4.64;74.59;100348.84;1737325;81;20972;-68
2021/12/30 02:00:48;;;;;;;31.60;20.32;;;;;;;-4.64;74.62;100355.28;1757045;81;20961;-68
2021/12/30 02:03:15;;;;;;;29.10;20.55;;;;;;;-4.62;74.65;100361.28;1758170;81;21056;-67
2021/12/30 02:05:42;;;;;;;27.58;19.70;;;;;;;-4.61;74.68;100360.41;1758444;81;21782;-68
2021/12/30 02:08:15;;;;;;;28.05;18.98;;;;;;;-4.58;74.65;100363.80;1755537;81;20988;-68
2021/12/30 02:10:45;;;;;;;27.70;18.87;;;;;;;-4.58;74.65;100366.37;1737056;81;21415;-68
2021/12/30 02:13:15;;;;;;;30.30;18.92;;;;;;;-4.57;74.58;100371.50;1757103;81;20996;-68
2021/12/30 02:15:41;;;;;;;26.35;18.35;;;;;;;-4.58;74.53;100371.09;1759263;81;21084;-68
2021/12/30 02:18:09;;;;;;;27.62;18.50;;;;;;;-4.58;74.55;100376.69;1744541;81;20940;-69
2021/12/30 02:20:53;;;;;;;29.98;20.60;;;;;;;-4.59;74.54;100372.41;1728260;81;20971;-68
2021/12/30 02:23:27;;;;;;;30.57;19.07;;;;;;;-4.60;74.58;100371.56;1751241;81;20956;-69
2021/12/30 02:25:59;;;;;;;27.87;18.77;;;;;;;-4.58;74.61;100376.69;1758848;81;20980;-69
2021/12/30 02:28:29;;;;;;;28.45;18.50;;;;;;;-4.61;74.61;100375.87;1728300;82;20939;-69
2021/12/30 02:30:59;;;;;;;31.97;21.00;;;;;;;-4.60;74.60;100376.72;1734044;82;21440;-68
2021/12/30 02:33:26;;;;;;;89.83;55.90;;;;;;;-4.61;74.60;100377.59;1728647;82;21015;-68
2021/12/30 02:35:52;;;;;;;77.42;46.58;;;;;;;-4.64;74.58;100378.48;1726993;82;21039;-68
2021/12/30 02:38:19;;;;;;;48.42;30.57;;;;;;;-4.66;74.61;100373.80;1758301;81;21411;-68
2021/12/30 02:40:50;;;;;;;37.95;25.32;;;;;;;-4.64;74.60;100375.05;1759561;81;21055;-68
2021/12/30 02:43:20;;;;;;;33.23;21.00;;;;;;;-4.66;74.63;100381.53;1759697;81;21840;-67
2021/12/30 02:45:47;;;;;;;28.90;19.10;;;;;;;-4.65;74.65;100379.36;1759632;81;20952;-67
2021/12/30 02:48:20;;;;;;;27.50;19.27;;;;;;;-4.67;74.63;100375.12;1759343;81;21035;-67
2021/12/30 02:50:48;;;;;;;32.85;21.17;;;;;;;-4.70;74.59;100381.19;1759541;81;20948;-66
2021/12/30 02:53:15;;;;;;;27.70;19.15;;;;;;;-4.73;74.62;100377.38;1759347;81;21189;-68
2021/12/30 02:55:43;;;;;;;73.37;44.42;;;;;;;-4.72;74.60;100379.08;1736744;81;21823;-67
2021/12/30 02:58:10;;;;;;;119.95;76.15;;;;;;;-4.74;74.56;100378.67;1734095;82;21086;-68
2021/12/30 03:00:37;;;;;;;88.52;55.92;;;;;;;-4.73;74.64;100378.67;1732251;82;21058;-67
2021/12/30 03:03:04;;;;;;;63.23;40.30;;;;;;;-4.72;74.64;100383.37;1713839;82;20997;-67
2021/12/30 03:05:31;;;;;;;45.95;30.72;;;;;;;-4.71;74.67;100385.08;1732434;82;21377;-67
2021/12/30 03:07:57;;;;;;;38.78;25.97;;;;;;;-4.68;74.67;100384.58;1734276;82;22452;-67
2021/12/30 03:10:25;;;;;;;32.15;21.65;;;;;;;-4.67;74.73;100383.70;1729900;82;21006;-67
2021/12/30 03:12:56;;;;;;;27.40;19.40;;;;;;;-4.63;74.79;100385.80;1756565;81;20984;-67
2021/12/30 03:15:21;;;;;;;28.67;19.57;;;;;;;-4.61;74.79;100387.47;1756001;81;21094;-68
2021/12/30 03:17:50;;;;;;;27.82;18.98;;;;;;;-4.59;74.71;100387.44;1732734;81;21419;-68
2021/12/30 03:20:17;;;;;;;26.50;18.87;;;;;;;-4.59;74.68;100390.02;1756819;81;21511;-67
2021/12/30 03:22:44;;;;;;;29.48;19.48;;;;;;;-4.59;74.69;100388.73;1756826;81;21459;-67
2021/12/30 03:25:13;;;;;;;28.65;18.77;;;;;;;-4.58;74.66;100396.02;1756596;81;21387;-68
2021/12/30 03:27:41;;;;;;;28.15;19.50;;;;;;;-4.59;74.68;100395.17;1756474;81;21051;-68
2021/12/30 03:30:11;;;;;;;29.60;19.12;;;;;;;-4.59;74.69;100396.90;1750316;81;20968;-67
2021/12/30 03:32:41;;;;;;;27.80;18.43;;;;;;;-4.60;74.68;100403.78;1753637;81;20944;-67
2021/12/30 03:35:08;;;;;;;25.95;17.98;;;;;;;-4.61;74.61;100403.37;1734933;81;21431;-67
2021/12/30 03:37:35;;;;;;;27.77;18.80;;;;;;;-4.59;74.59;100405.92;1754051;81;21000;-67
2021/12/30 03:40:05;;;;;;;27.93;19.23;;;;;;;-4.59;74.54;100402.05;1727964;81;20979;-67
2021/12/30 03:42:32;;;;;;;30.00;19.23;;;;;;;-4.61;74.54;100406.80;1756365;81;21060;-66
2021/12/30 03:45:02;;;;;;;47.03;31.27;;;;;;;-4.62;74.56;100413.27;1741056;81;22631;-67
2021/12/30 03:47:29;;;;;;;43.50;27.27;;;;;;;-4.64;74.58;100418.86;1753373;81;20953;-67
2021/12/30 03:49:55;;;;;;;38.78;25.70;;;;;;;-4.66;74.60;100419.33;1727092;81;20983;-67
2021/12/30 03:52:28;;;;;;;32.17;21.02;;;;;;;-4.67;74.62;100418.48;1744288;81;21418;-68
2021/12/30 03:54:51;;;;;;;29.77;20.55;;;;;;;-4.64;74.65;100422.29;1748924;81;21513;-67
2021/12/30 03:57:17;;;;;;;28.77;19.30;;;;;;;-4.64;74.67;100424.87;1735174;81;22460;-68
2021/12/30 03:59:45;;;;;;;27.60;18.87;;;;;;;-4.63;74.64;100415.44;1749536;81;20988;-67
2021/12/30 04:02:11;;;;;;;30.75;20.12;;;;;;;-4.63;74.64;100420.59;1726182;81;21021;-67
2021/12/30 04:04:38;;;;;;;28.60;19.75;;;;;;;-4.63;74.64;100423.17;1736235;81;20996;-67
2021/12/30 04:07:04;;;;;;;31.55;20.37;;;;;;;-4.66;74.62;100422.76;1736294;81;21052;-67
2021/12/30 04:09:31;;;;;;;27.13;18.57;;;;;;;-4.64;74.66;100429.17;1735685;81;21825;-68
2021/12/30 04:11:58;;;;;;;26.05;18.70;;;;;;;-4.63;74.70;100429.61;1711294;83;20861;-66
2021/12/30 04:14:26;;;;;;;28.02;19.20;;;;;;;-4.61;74.77;100432.57;1710866;83;21082;-67
2021/12/30 04:16:53;;;;;;;25.88;18.37;;;;;;;-4.59;74.75;100431.69;1713008;83;21382;-68
2021/12/30 04:19:20;;;;;;;27.95;19.05;;;;;;;-4.59;74.70;100432.54;1712230;82;20995;-66
2021/12/30 04:21:47;;;;;;;27.13;19.15;;;;;;;-4.59;74.65;100435.12;1713549;83;21774;-67
2021/12/30 04:24:14;;;;;;;31.17;19.90;;;;;;;-4.59;74.61;100437.70;1711443;83;21010;-67
2021/12/30 04:26:41;;;;;;;29.20;19.60;;;;;;;-4.59;74.67;100433.83;1712971;83;21010;-67
2021/12/30 04:29:07;;;;;;;27.48;19.23;;;;;;;-4.58;74.70;100433.39;1713688;83;21051;-67
2021/12/30 04:31:35;;;;;;;29.12;19.62;;;;;;;-4.57;74.72;100435.09;1713535;83;21010;-67
2021/12/30 04:34:01;;;;;;;28.27;19.45;;;;;;;-4.55;74.70;100451.38;1712337;83;21801;-67
2021/12/30 04:36:28;;;;;;;27.70;19.02;;;;;;;-4.57;74.65;100447.53;1713283;82;20992;-66
2021/12/30 04:38:55;;;;;;;31.80;21.17;;;;;;;-4.58;74.61;100451.43;1713355;83;20987;-66
2021/12/30 04:41:21;;;;;;;40.17;26.73;;;;;;;-4.59;74.60;100457.02;1713316;82;21042;-68
2021/12/30 04:43:47;;;;;;;70.50;47.03;;;;;;;-4.64;74.56;100453.66;1712256;83;20984;-68
2021/12/30 04:46:14;;;;;;;46.18;29.20;;;;;;;-4.67;74.59;100451.98;1682044;83;21746;-67
2021/12/30 04:48:40;;;;;;;37.73;24.92;;;;;;;-4.64;74.59;100451.08;1696351;83;21011;-67
2021/12/30 04:51:07;;;;;;;77.70;45.78;;;;;;;-4.64;74.61;100454.94;1713266;83;21007;-67
2021/12/30 04:53:34;;;;;;;62.67;37.53;;;;;;;-4.63;74.63;100460.54;1712940;83;21058;-67
2021/12/30 04:56:01;;;;;;;44.60;29.75;;;;;;;-4.62;74.64;100466.11;1713194;83;21122;-68
2021/12/30 08:26:51;;;;;;;26.65;19.87;;;;;;;-3.27;77.06;100621.55;1868178;75;28014;-65
2021/12/30 08:29:18;;;;;;;31.00;20.72;;;;;;;-3.26;76.56;100624.98;1856384;77;21477;-65
2021/12/30 08:31:45;;;;;;;31.80;21.93;;;;;;;-3.27;76.10;100622.00;1832054;77;22510;-65
2021/12/30 08:34:11;;;;;;;30.12;20.23;;;;;;;-3.28;75.81;100626.72;1830841;77;21518;-65
2021/12/30 08:36:39;;;;;;;26.40;18.52;;;;;;;-3.24;75.65;100621.48;1843325;77;21015;-65
2021/12/30 08:39:06;;;;;;;62.78;36.55;;;;;;;-3.19;75.40;100618.36;1847862;77;21477;-65
2021/12/30 08:41:33;;;;;;;45.63;29.95;;;;;;;-3.14;75.12;100626.04;1832316;77;21045;-65
2021/12/30 08:43:59;;;;;;;42.27;27.82;;;;;;;-3.12;74.71;100621.69;1853409;76;21517;-64
2021/12/30 08:46:26;;;;;;;30.55;20.70;;;;;;;-3.13;74.22;100619.98;1826159;78;21290;-66
2021/12/30 08:48:52;;;;;;;26.60;18.82;;;;;;;-3.12;74.08;100618.25;1823394;77;20996;-65
2021/12/30 08:51:19;;;;;;;23.75;18.52;;;;;;;-3.11;73.88;100610.47;1829058;77;21110;-67
2021/12/30 08:53:45;;;;;;;25.65;18.42;;;;;;;-3.06;73.82;100603.94;1833066;77;21073;-68
2021/12/30 08:56:12;;;;;;;27.00;19.27;;;;;;;-3.03;73.55;100602.57;1830544;77;21781;-67
2021/12/30 08:58:39;;;;;;;29.48;20.35;;;;;;;-3.03;73.31;100610.33;1859575;77;20980;-65
2021/12/30 09:01:06;;;;;;;30.45;20.05;;;;;;;-3.00;73.25;100620.14;1790312;78;21093;-66
2021/12/30 09:03:32;;;;;;;46.37;28.67;;;;;;;-2.95;72.97;100617.48;1778582;80;21542;-66
2021/12/30 09:05:59;;;;;;;31.90;21.57;;;;;;;-2.98;72.68;100617.11;1800577;78;21478;-65
2021/12/30 09:08:25;;;;;;;36.45;24.02;;;;;;;-2.97;72.58;100618.81;1811558;78;21725;-67
2021/12/30 09:10:51;;;;;;;33.00;22.87;;;;;;;-2.96;72.50;100620.52;1779455;78;21023;-66
2021/12/30 09:13:20;;;;;;;28.70;20.97;;;;;;;-2.90;72.41;100623.39;1788793;78;21098;-64
2021/12/30 09:15:48;;;;;;;25.45;18.82;;;;;;;-2.86;72.26;100626.79;1796055;78;21114;-64
2021/12/30 09:18:15;;;;;;;28.50;20.60;;;;;;;-2.84;72.13;100621.14;1774281;80;21313;-64
2021/12/30 09:20:42;;;;;;;24.32;17.50;;;;;;;-2.80;72.03;100621.47;1783472;80;21842;-65
2021/12/30 09:23:09;;;;;;;24.20;17.02;;;;;;;-2.77;71.78;100613.67;1785372;79;21063;-65
2021/12/30 09:25:38;;;;;;;23.52;17.05;;;;;;;-2.80;71.53;100606.81;1787706;79;21062;-69
2021/12/30 09:28:11;;;;;;;21.97;16.25;;;;;;;-2.79;71.50;100612.42;1791939;79;21013;-68
2021/12/30 09:30:36;;;;;;;19.40;14.83;;;;;;;-2.76;71.37;100608.91;1788443;79;21047;-67
2021/12/30 09:33:04;;;;;;;22.37;16.82;;;;;;;-2.74;71.18;100605.84;1773417;79;21784;-65
2021/12/30 09:35:32;;;;;;;22.77;16.82;;;;;;;-2.75;70.98;100600.27;1784134;79;21918;-66
2021/12/30 09:37:59;;;;;;;20.90;15.78;;;;;;;-2.76;70.87;100602.45;1774526;79;21124;-67
2021/12/30 09:40:26;;;;;;;19.62;15.80;;;;;;;-2.75;70.80;100601.12;1777875;79;21067;-66
2021/12/30 09:43:01;;;;;;;22.30;15.03;;;;;;;-2.75;70.58;100599.83;1773413;79;21055;-65
2021/12/30 09:45:23;;;;;;;21.60;16.27;;;;;;;-2.77;70.40;100593.00;1778371;79;22544;-66
2021/12/30 09:47:54;;;;;;;21.45;15.75;;;;;;;-2.80;70.35;100587.42;1765242;79;21043;-66
2021/12/30 09:50:25;;;;;;;20.20;15.08;;;;;;;-2.76;70.35;100588.23;1782599;79;20993;-67
2021/12/30 09:52:51;;;;;;;21.30;15.88;;;;;;;-2.73;70.26;100592.88;1784371;79;21087;-67
2021/12/30 09:55:18;;;;;;;23.62;17.05;;;;;;;-2.70;70.11;100603.18;1779348;79;21102;-67
2021/12/30 09:57:45;;;;;;;23.92;15.75;;;;;;;-2.68;70.03;100601.41;1770723;79;21834;-68
2021/12/30 10:00:13;;;;;;;28.85;19.27;;;;;;;-2.65;69.92;100601.33;1779623;79;21659;-67
2021/12/30 10:02:41;;;;;;;22.87;16.20;;;;;;;-2.65;69.73;100591.43;1774010;79;21082;-68
2021/12/30 10:05:21;;;;;;;24.40;17.02;;;;;;;-2.64;69.68;100594.42;1795542;79;20992;-68
2021/12/30 10:07:47;;;;;;;22.40;16.48;;;;;;;-2.64;69.61;100595.71;1772267;79;21090;-67
2021/12/30 10:10:32;;;;;;;24.27;17.48;;;;;;;-2.60;69.58;100594.78;1783555;79;21074;-70
2021/12/30 10:12:59;;;;;;;28.53;19.80;;;;;;;-2.60;69.34;100594.78;1750522;79;21437;-68
2021/12/30 10:15:29;;;;;;;25.43;18.23;;;;;;;-2.69;69.18;100595.83;1773972;79;21070;-68
2021/12/30 10:17:58;;;;;;;30.68;21.30;;;;;;;-2.74;69.24;100591.19;1777630;79;21031;-68
2021/12/30 10:20:29;;;;;;;25.92;18.80;;;;;;;-2.79;69.15;100585.72;1808560;78;21075;-65
2021/12/30 10:23:18;;;;;;;30.15;19.57;;;;;;;-2.84;69.16;100584.95;1800657;78;21857;-67
2021/12/30 10:25:48;;;;;;;28.95;19.30;;;;;;;-2.85;69.18;100589.72;1782509;79;21075;-66
2021/12/30 10:28:40;;;;;;;34.98;22.15;;;;;;;-2.85;69.28;100579.37;1772774;80;21033;-67
2021/12/30 10:31:17;;;;;;;28.85;19.00;;;;;;;-2.82;69.29;100580.59;1778083;80;21044;-66
2021/12/30 10:34:04;;;;;;;27.50;19.02;;;;;;;-2.81;69.30;100579.27;1767267;80;21095;-68
2021/12/30 10:36:44;;;;;;;28.25;17.23;;;;;;;-2.81;69.20;100579.27;1787620;79;22573;-67
2021/12/30 10:39:30;;;;;;;42.05;29.63;;;;;;;-2.81;69.13;100584.88;1790412;78;21497;-66
2021/12/30 10:42:15;;;;;;;39.60;28.17;;;;;;;-2.87;69.03;100584.59;1777708;78;21564;-66
2021/12/30 10:44:57;;;;;;;34.33;23.47;;;;;;;-2.93;69.08;100595.04;1800059;78;20944;-67
2021/12/30 10:47:29;;;;;;;30.32;19.95;;;;;;;-2.96;69.08;100582.19;1799363;79;21040;-66
2021/12/30 10:50:10;;;;;;;24.45;17.75;;;;;;;-3.00;69.06;100587.84;1792132;79;21871;-65
2021/12/30 10:52:47;;;;;;;26.33;18.43;;;;;;;-3.01;69.16;100582.71;1791052;78;21446;-67
2021/12/30 10:55:15;;;;;;;27.87;18.87;;;;;;;-2.97;69.25;100586.95;1790729;79;21086;-66
2021/12/30 10:57:41;;;;;;;39.42;23.85;;;;;;;-2.92;69.29;100583.38;1818071;78;21004;-65
2021/12/30 11:00:10;;;;;;;31.45;20.27;;;;;;;-2.86;69.25;100571.22;1797207;78;21002;-67
2021/12/30 11:02:37;;;;;;;30.52;20.00;;;;;;;-2.83;69.25;100562.95;1791219;78;21883;-67
2021/12/30 11:05:10;;;;;;;32.87;19.87;;;;;;;-2.78;69.27;100561.57;1800267;78;21020;-65
2021/12/30 11:07:48;;;;;;;26.80;18.75;;;;;;;-2.74;69.19;100574.82;1811358;77;20944;-65
2021/12/30 11:10:33;;;;;;;29.60;20.80;;;;;;;-2.74;69.10;100570.50;1813532;77;21020;-66
2021/12/30 11:13:13;;;;;;;29.95;21.07;;;;;;;-2.76;68.95;100564.97;1792472;79;20980;-64
2021/12/30 11:15:40;;;;;;;28.52;19.77;;;;;;;-2.78;68.96;100570.62;1790801;79;21871;-65
2021/12/30 11:18:15;;;;;;;31.37;21.50;;;;;;;-2.78;69.01;100579.66;1791810;79;20944;-66
2021/12/30 11:20:47;;;;;;;29.70;20.02;;;;;;;-2.78;68.94;100575.79;1797351;79;20999;-65
2021/12/30 11:23:15;;;;;;;38.08;22.93;;;;;;;-2.80;68.89;100578.82;1774915;79;21094;-65
2021/12/30 11:25:43;;;;;;;34.83;23.22;;;;;;;-2.84;68.85;100579.34;1785109;79;21114;-66
2021/12/30 11:28:10;;;;;;;35.03;24.18;;;;;;;-2.87;68.82;100586.32;1782296;79;21849;-68
2021/12/30 11:30:37;;;;;;;31.05;21.57;;;;;;;-2.91;68.82;100577.31;1786299;79;20996;-66
2021/12/30 11:33:05;;;;;;;37.45;24.02;;;;;;;-2.92;68.89;100573.48;1791489;79;21490;-66
2021/12/30 11:35:31;;;;;;;34.10;23.45;;;;;;;-2.93;68.88;100580.83;1775511;80;21343;-67
2021/12/30 11:37:58;;;;;;;35.50;23.87;;;;;;;-2.94;68.95;100574.80;1769045;78;20995;-66
2021/12/30 11:40:26;;;;;;;37.03;24.82;;;;;;;-2.90;69.04;100565.24;1790405;80;21809;-66
2021/12/30 11:42:59;;;;;;;32.33;21.23;;;;;;;-2.85;69.07;100565.16;1790873;80;20937;-66
2021/12/30 11:45:31;;;;;;;;;;;;;;;-2.78;69.12;100571.47;1779989;78;20999;-65
2021/12/30 11:48:02;;;;;;;32.78;22.00;;;;;;;-2.74;69.01;100573.09;1785729;78;20362;-65
2021/12/30 11:50:36;;;;;;;34.60;21.93;;;;;;;-2.76;69.00;100565.81;1790030;80;21410;-66
2021/12/30 11:53:12;;;;;;;33.02;23.15;;;;;;;-2.77;68.92;100573.16;1763928;80;21787;-66
2021/12/30 11:55:57;;;;;;;42.83;26.93;;;;;;;-2.79;68.87;100576.67;1784677;79;20968;-65
2021/12/30 11:58:40;;;;;;;35.68;24.30;;;;;;;-2.83;68.80;100577.16;1782506;79;21434;-64
2021/12/30 12:01:19;;;;;;;44.60;28.07;;;;;;;-2.86;68.88;100572.06;1776428;79;20983;-66
2021/12/30 12:03:50;;;;;;;35.60;24.75;;;;;;;-2.83;68.98;100569.85;1776789;79;21078;-64
2021/12/30 12:06:31;;;;;;;35.23;24.98;;;;;;;-2.78;69.00;100571.47;1809934;78;21841;-66
2021/12/30 12:09:02;;;;;;;50.95;31.42;;;;;;;-2.77;68.95;100574.90;1815153;78;20992;-67
2021/12/30 12:11:42;;;;;;;40.95;24.45;;;;;;;-2.76;68.90;100564.97;1802766;78;21390;-65
2021/12/30 12:14:24;;;;;;;41.33;26.82;;;;;;;-2.81;68.85;100568.08;1746336;80;21006;-67
2021/12/30 12:17:04;;;;;;;40.58;24.90;;;;;;;-2.84;68.95;100566.86;1767696;80;20961;-65
2021/12/30 12:19:43;;;;;;;39.53;25.10;;;;;;;-2.83;68.95;100569.41;1779247;80;21793;-63
2021/12/30 12:22:21;;;;;;;44.48;25.90;;;;;;;-2.81;69.05;100568.92;1781451;79;20996;-65
2021/12/30 12:25:11;;;;;;;42.70;27.80;;;;;;;-2.80;69.06;100582.25;1785343;79;21012;-64
2021/12/30 12:27:48;;;;;;;63.02;38.92;;;;;;;-2.80;69.13;100584.84;1775889;79;21350;-63
2021/12/30 12:30:30;;;;;;;61.48;38.88;;;;;;;-2.79;69.25;100581.84;1817279;78;21521;-62
2021/12/30 12:32:59;;;;;;;41.03;26.53;;;;;;;-2.79;69.31;100581.40;1778791;79;21842;-63
2021/12/30 12:35:30;;;;;;;44.13;27.98;;;;;;;-2.76;69.41;100581.77;1789001;80;20985;-63
2021/12/30 12:38:02;;;;;;;42.33;26.10;;;;;;;-2.75;69.38;100567.95;1780828;79;20957;-64
2021/12/30 12:40:36;;;;;;;42.95;25.85;;;;;;;-2.75;69.39;100574.42;1775718;79;20957;-63
2021/12/30 12:43:07;;;;;;;59.80;35.85;;;;;;;-2.79;69.28;100567.18;1778960;80;27281;-65
2021/12/30 12:56:39;;;;;;;46.92;30.65;;;;;;;-2.28;68.89;100571.20;1878248;76;29454;-64
2021/12/30 12:59:11;;;;;;;48.17;32.53;;;;;;;-2.37;68.78;100564.50;1860166;77;21022;-66
2021/12/30 13:01:45;;;;;;;38.65;26.17;;;;;;;-2.44;68.74;100565.52;1858991;77;20991;-65
2021/12/30 13:15:13;;;;;;;43.35;30.92;;;;;;;-2.03;68.20;100564.11;1870058;76;29545;-65
2021/12/30 13:17:43;;;;;;;43.58;29.65;;;;;;;-2.11;67.95;100570.36;1847329;77;21246;-65
2021/12/30 13:20:12;;;;;;;44.33;32.90;;;;;;;-2.25;67.82;100567.24;1845332;77;22496;-66
2021/12/30 13:22:38;;;;;;;36.50;25.32;;;;;;;-2.39;67.81;100563.25;1843089;77;21046;-66
2021/12/30 13:25:06;;;;;;;34.92;23.98;;;;;;;-2.48;67.82;100569.93;1851112;77;20976;-66
2021/12/30 13:27:40;;;;;;;30.97;21.00;;;;;;;-2.56;67.89;100569.25;1850240;77;20984;-65
2021/12/30 13:30:13;;;;;;;;;;;;;;;-2.62;67.94;100571.95;1862879;77;21012;-65
2021/12/30 13:32:45;;;;;;;31.00;20.35;;;;;;;-2.66;67.96;100568.61;1839525;77;22616;-64
2021/12/30 13:35:21;;;;;;;35.83;23.07;;;;;;;-2.72;68.03;100573.05;1826199;78;21019;-66
2021/12/30 13:37:51;;;;;;;35.50;23.70;;;;;;;-2.77;68.06;100574.90;1811903;77;21410;-67
2021/12/30 13:40:27;;;;;;;34.53;23.20;;;;;;;-2.81;68.10;100575.39;1794106;79;22091;-66
2021/12/30 13:43:00;;;;;;;42.65;27.15;;;;;;;-2.81;68.15;100575.39;1833695;77;20984;-65
2021/12/30 13:45:33;;;;;;;31.85;21.65;;;;;;;-2.80;68.19;100578.82;1834951;77;23636;-66
2021/12/30 13:48:10;;;;;;;31.35;20.15;;;;;;;-2.81;68.26;100571.95;1827598;78;21388;-65
2021/12/30 13:50:43;;;;;;;28.80;19.98;;;;;;;-2.82;68.27;100570.25;1827919;78;20941;-65
2021/12/30 13:53:14;;;;;;;30.27;20.02;;;;;;;-2.85;68.30;100571.63;1854780;77;20983;-65
2021/12/30 13:55:48;;;;;;;27.90;17.48;;;;;;;-2.85;68.34;100570.33;1799969;77;21517;-65
2021/12/30 13:58:22;;;;;;;32.03;20.57;;;;;;;-2.86;68.34;100564.31;1832590;77;21780;-65
2021/12/30 14:01:08;;;;;;;32.13;20.52;;;;;;;-2.89;68.37;100578.16;1830234;77;20965;-65
2021/12/30 14:03:37;;;;;;;32.93;22.22;;;;;;;-2.92;68.36;100576.91;1844467;76;21030;-65
2021/12/30 14:06:27;;;;;;;29.77;19.45;;;;;;;-2.95;68.39;100574.41;1823634;78;20980;-66
2021/12/30 14:09:00;;;;;;;29.10;19.25;;;;;;;-2.97;68.40;100572.74;1801447;78;20988;-65
2021/12/30 14:11:32;;;;;;;29.57;20.32;;;;;;;-2.99;68.46;100568.90;1797625;78;21794;-66
2021/12/30 14:14:01;;;;;;;31.07;20.75;;;;;;;-3.02;68.44;100572.81;1773270;78;21410;-65
2021/12/30 14:16:38;;;;;;;33.42;21.48;;;;;;;-3.07;68.38;100572.52;1822032;78;21022;-66
2021/12/30 14:19:05;;;;;;;35.23;23.10;;;;;;;-3.11;68.49;100564.41;1820164;78;21008;-65
2021/12/30 14:21:33;;;;;;;40.67;24.45;;;;;;;-3.13;68.54;100574.77;1817755;78;21054;-65
2021/12/30 14:24:24;;;;;;;45.15;26.48;;;;;;;-3.13;68.62;100579.94;1778977;79;21794;-66
2021/12/30 14:26:58;;;;;;;44.18;27.90;;;;;;;-3.13;68.71;100579.94;1792558;77;20991;-65
2021/12/30 14:29:28;;;;;;;40.87;25.80;;;;;;;-3.11;68.76;100584.62;1774939;79;21004;-66
2021/12/30 14:31:57;;;;;;;41.20;24.60;;;;;;;-3.11;68.84;100585.08;1792542;78;21011;-64
2021/12/30 14:34:37;;;;;;;37.80;24.75;;;;;;;-3.11;68.91;100589.80;1826222;77;21429;-65
2021/12/30 14:37:11;;;;;;;42.33;26.97;;;;;;;-3.11;68.96;100592.38;1825526;78;23893;-65
2021/12/30 14:39:49;;;;;;;35.73;24.25;;;;;;;-3.09;69.04;100589.31;1800544;79;20936;-65
2021/12/30 14:42:30;;;;;;;41.37;26.42;;;;;;;-3.07;69.11;100590.16;1810261;78;20933;-65
2021/12/30 14:45:08;;;;;;;35.88;23.70;;;;;;;-3.07;69.13;100583.70;1809164;78;21051;-66
2021/12/30 14:47:37;;;;;;;41.35;26.35;;;;;;;-3.05;69.12;100595.30;1796432;78;20963;-65
2021/12/30 14:50:14;;;;;;;38.55;25.37;;;;;;;-3.06;69.11;100590.57;1770278;78;21815;-64
2021/12/30 14:52:50;;;;;;;43.08;26.70;;;;;;;-3.05;69.18;100598.73;1816109;78;21002;-65
2021/12/30 14:55:27;;;;;;;42.62;26.45;;;;;;;-3.03;69.27;100596.11;1818054;78;20956;-65
2021/12/30 14:57:56;;;;;;;41.20;25.08;;;;;;;-3.02;69.30;100597.81;1794931;79;21022;-64
2021/12/30 15:00:27;;;;;;;42.38;26.65;;;;;;;-3.00;69.34;100596.04;1782683;80;21003;-64
2021/12/30 15:02:54;;;;;;;38.73;25.23;;;;;;;-3.02;69.33;100588.32;1727711;81;21772;-65
2021/12/30 15:05:21;;;;;;;41.53;26.60;;;;;;;-2.99;69.28;100587.40;1780981;80;21040;-65
2021/12/30 15:07:47;;;;;;;46.00;29.67;;;;;;;-3.03;69.23;100585.33;1771863;80;20965;-64
2021/12/30 15:10:16;;;;;;;39.78;25.75;;;;;;;-3.02;69.32;100590.91;1781470;80;20988;-64
2021/12/30 15:12:45;;;;;;;46.08;28.67;;;;;;;-3.02;69.32;100594.78;1757495;80;21560;-65
2021/12/30 15:15:14;;;;;;;40.63;25.77;;;;;;;-3.01;69.24;100594.34;1752043;81;21761;-65